sensor_id;sensor_type;location;lat;lon;timestamp;P1;durP1;ratioP1;P2;durP2;ratioP2
55065;SDS011;40964;42.114;24.220;2024-01-30T00:01:37;21.27;;;7.15;;
55065;SDS011;40964;42.114;24.220;2024-01-30T00:04:02;19.08;;;7.60;;
55065;SDS011;40964;42.114;24.220;2024-01-30T00:06:28;18.95;;;6.95;;
55065;SDS011;40964;42.114;24.220;2024-01-30T00:08:53;17.85;;;6.80;;
55065;SDS011;40964;42.114;24.220;2024-01-30T00:11:19;12.55;;;5.20;;
55065;SDS011;40964;42.114;24.220;2024-01-30T00:13:44;9.65;;;4.50;;
55065;SDS011;40964;42.114;24.220;2024-01-30T00:16:19;9.95;;;4.55;;
55065;SDS011;40964;42.114;24.220;2024-01-30T00:18:49;11.07;;;4.85;;
55065;SDS011;40964;42.114;24.220;2024-01-30T00:21:15;11.50;;;4.35;;
55065;SDS011;40964;42.114;24.220;2024-01-30T00:23:41;8.68;;;4.68;;
55065;SDS011;40964;42.114;24.220;2024-01-30T00:26:06;10.32;;;4.95;;
55065;SDS011;40964;42.114;24.220;2024-01-30T00:28:32;9.85;;;5.03;;
55065;SDS011;40964;42.114;24.220;2024-01-30T00:30:57;11.70;;;5.65;;
55065;SDS011;40964;42.114;24.220;2024-01-30T00:33:22;10.82;;;5.03;;
55065;SDS011;40964;42.114;24.220;2024-01-30T00:35:48;11.50;;;5.82;;
55065;SDS011;40964;42.114;24.220;2024-01-30T00:38:13;14.32;;;5.43;;
55065;SDS011;40964;42.114;24.220;2024-01-30T00:40:39;9.43;;;4.43;;
55065;SDS011;40964;42.114;24.220;2024-01-30T00:43:04;10.05;;;4.10;;
55065;SDS011;40964;42.114;24.220;2024-01-30T00:45:30;10.35;;;4.22;;
55065;SDS011;40964;42.114;24.220;2024-01-30T00:47:56;7.00;;;3.78;;
55065;SDS011;40964;42.114;24.220;2024-01-30T00:50:21;8.63;;;3.80;;
55065;SDS011;40964;42.114;24.220;2024-01-30T00:52:47;9.07;;;4.85;;
55065;SDS011;40964;42.114;24.220;2024-01-30T00:55:12;9.63;;;4.03;;
55065;SDS011;40964;42.114;24.220;2024-01-30T00:57:39;9.30;;;3.92;;
55065;SDS011;40964;42.114;24.220;2024-01-30T01:00:05;9.77;;;4.60;;
55065;SDS011;40964;42.114;24.220;2024-01-30T01:02:33;10.50;;;4.63;;
55065;SDS011;40964;42.114;24.220;2024-01-30T01:04:59;8.68;;;4.03;;
55065;SDS011;40964;42.114;24.220;2024-01-30T01:07:25;8.13;;;3.85;;
55065;SDS011;40964;42.114;24.220;2024-01-30T01:09:50;8.35;;;3.72;;
55065;SDS011;40964;42.114;24.220;2024-01-30T01:12:15;10.20;;;4.57;;
55065;SDS011;40964;42.114;24.220;2024-01-30T01:14:41;12.02;;;4.88;;
55065;SDS011;40964;42.114;24.220;2024-01-30T01:17:07;12.48;;;5.05;;
55065;SDS011;40964;42.114;24.220;2024-01-30T01:19:32;9.52;;;4.82;;
55065;SDS011;40964;42.114;24.220;2024-01-30T01:21:58;9.63;;;5.00;;
55065;SDS011;40964;42.114;24.220;2024-01-30T01:24:23;11.95;;;4.90;;
55065;SDS011;40964;42.114;24.220;2024-01-30T01:26:49;10.60;;;4.80;;
55065;SDS011;40964;42.114;24.220;2024-01-30T01:29:15;9.93;;;4.93;;
55065;SDS011;40964;42.114;24.220;2024-01-30T01:31:41;12.00;;;5.25;;
55065;SDS011;40964;42.114;24.220;2024-01-30T01:34:12;12.90;;;4.82;;
55065;SDS011;40964;42.114;24.220;2024-01-30T01:36:38;13.10;;;5.85;;
55065;SDS011;40964;42.114;24.220;2024-01-30T01:39:04;13.30;;;5.38;;
55065;SDS011;40964;42.114;24.220;2024-01-30T01:41:30;11.32;;;6.22;;
55065;SDS011;40964;42.114;24.220;2024-01-30T01:43:57;11.85;;;5.88;;
55065;SDS011;40964;42.114;24.220;2024-01-30T01:46:22;10.90;;;5.38;;
55065;SDS011;40964;42.114;24.220;2024-01-30T01:48:48;14.13;;;5.32;;
55065;SDS011;40964;42.114;24.220;2024-01-30T01:51:14;10.60;;;4.95;;
55065;SDS011;40964;42.114;24.220;2024-01-30T01:53:40;13.70;;;5.32;;
55065;SDS011;40964;42.114;24.220;2024-01-30T01:56:06;11.60;;;5.20;;
55065;SDS011;40964;42.114;24.220;2024-01-30T01:58:32;15.73;;;5.70;;
55065;SDS011;40964;42.114;24.220;2024-01-30T02:00:57;13.30;;;5.95;;
55065;SDS011;40964;42.114;24.220;2024-01-30T02:03:24;14.88;;;5.55;;
55065;SDS011;40964;42.114;24.220;2024-01-30T02:05:52;12.80;;;5.80;;
55065;SDS011;40964;42.114;24.220;2024-01-30T02:08:18;12.00;;;5.38;;
55065;SDS011;40964;42.114;24.220;2024-01-30T02:10:44;14.88;;;5.70;;
55065;SDS011;40964;42.114;24.220;2024-01-30T02:13:09;17.05;;;5.78;;
55065;SDS011;40964;42.114;24.220;2024-01-30T02:15:35;17.80;;;6.70;;
55065;SDS011;40964;42.114;24.220;2024-01-30T02:18:00;18.00;;;7.15;;
55065;SDS011;40964;42.114;24.220;2024-01-30T02:20:26;16.27;;;6.85;;
55065;SDS011;40964;42.114;24.220;2024-01-30T02:22:54;14.30;;;6.28;;
55065;SDS011;40964;42.114;24.220;2024-01-30T02:25:36;10.55;;;5.57;;
55065;SDS011;40964;42.114;24.220;2024-01-30T02:28:09;13.80;;;6.03;;
55065;SDS011;40964;42.114;24.220;2024-01-30T02:30:35;14.23;;;6.18;;
55065;SDS011;40964;42.114;24.220;2024-01-30T02:33:01;14.25;;;6.43;;
55065;SDS011;40964;42.114;24.220;2024-01-30T02:35:26;13.48;;;5.78;;
55065;SDS011;40964;42.114;24.220;2024-01-30T02:37:51;12.88;;;5.57;;
55065;SDS011;40964;42.114;24.220;2024-01-30T02:40:17;13.52;;;5.38;;
55065;SDS011;40964;42.114;24.220;2024-01-30T02:42:42;10.35;;;4.82;;
55065;SDS011;40964;42.114;24.220;2024-01-30T02:45:09;11.25;;;5.50;;
55065;SDS011;40964;42.114;24.220;2024-01-30T02:47:35;11.05;;;5.40;;
55065;SDS011;40964;42.114;24.220;2024-01-30T02:50:01;12.27;;;5.50;;
55065;SDS011;40964;42.114;24.220;2024-01-30T02:52:26;19.25;;;8.32;;
55065;SDS011;40964;42.114;24.220;2024-01-30T02:54:52;13.05;;;6.15;;
55065;SDS011;40964;42.114;24.220;2024-01-30T02:57:17;10.95;;;5.40;;
55065;SDS011;40964;42.114;24.220;2024-01-30T02:59:43;11.65;;;5.43;;
55065;SDS011;40964;42.114;24.220;2024-01-30T03:02:08;10.75;;;4.97;;
55065;SDS011;40964;42.114;24.220;2024-01-30T03:04:33;11.52;;;5.50;;
55065;SDS011;40964;42.114;24.220;2024-01-30T03:06:59;11.10;;;5.85;;
55065;SDS011;40964;42.114;24.220;2024-01-30T03:09:24;14.07;;;5.60;;
55065;SDS011;40964;42.114;24.220;2024-01-30T03:11:50;12.57;;;5.60;;
55065;SDS011;40964;42.114;24.220;2024-01-30T03:14:15;12.73;;;6.10;;
55065;SDS011;40964;42.114;24.220;2024-01-30T03:16:41;16.05;;;6.50;;
55065;SDS011;40964;42.114;24.220;2024-01-30T03:19:07;12.60;;;5.20;;
55065;SDS011;40964;42.114;24.220;2024-01-30T03:21:35;11.18;;;4.80;;
55065;SDS011;40964;42.114;24.220;2024-01-30T03:24:00;10.68;;;5.07;;
55065;SDS011;40964;42.114;24.220;2024-01-30T03:26:26;10.35;;;4.57;;
55065;SDS011;40964;42.114;24.220;2024-01-30T03:28:51;11.27;;;6.22;;
55065;SDS011;40964;42.114;24.220;2024-01-30T03:31:17;11.32;;;5.55;;
55065;SDS011;40964;42.114;24.220;2024-01-30T03:33:42;12.98;;;5.90;;
55065;SDS011;40964;42.114;24.220;2024-01-30T03:36:08;13.30;;;5.90;;
55065;SDS011;40964;42.114;24.220;2024-01-30T03:38:34;14.48;;;6.82;;
55065;SDS011;40964;42.114;24.220;2024-01-30T03:41:00;12.10;;;6.00;;
55065;SDS011;40964;42.114;24.220;2024-01-30T03:43:25;16.48;;;6.35;;
55065;SDS011;40964;42.114;24.220;2024-01-30T03:45:51;12.05;;;5.43;;
55065;SDS011;40964;42.114;24.220;2024-01-30T03:48:17;16.88;;;5.97;;
55065;SDS011;40964;42.114;24.220;2024-01-30T03:50:42;11.73;;;5.47;;
55065;SDS011;40964;42.114;24.220;2024-01-30T03:53:07;10.60;;;4.88;;
55065;SDS011;40964;42.114;24.220;2024-01-30T03:55:33;14.75;;;5.43;;
55065;SDS011;40964;42.114;24.220;2024-01-30T03:57:58;12.05;;;5.57;;
55065;SDS011;40964;42.114;24.220;2024-01-30T04:00:24;16.15;;;7.13;;
55065;SDS011;40964;42.114;24.220;2024-01-30T04:02:49;19.60;;;9.15;;
55065;SDS011;40964;42.114;24.220;2024-01-30T04:05:16;14.88;;;7.93;;
55065;SDS011;40964;42.114;24.220;2024-01-30T04:07:42;11.88;;;5.68;;
55065;SDS011;40964;42.114;24.220;2024-01-30T04:10:08;13.38;;;5.90;;
55065;SDS011;40964;42.114;24.220;2024-01-30T04:12:34;12.23;;;5.80;;
55065;SDS011;40964;42.114;24.220;2024-01-30T04:15:00;14.23;;;6.15;;
55065;SDS011;40964;42.114;24.220;2024-01-30T04:17:26;18.75;;;7.28;;
55065;SDS011;40964;42.114;24.220;2024-01-30T04:19:53;15.90;;;6.47;;
55065;SDS011;40964;42.114;24.220;2024-01-30T04:22:18;11.73;;;5.30;;
55065;SDS011;40964;42.114;24.220;2024-01-30T04:24:44;12.43;;;5.72;;
55065;SDS011;40964;42.114;24.220;2024-01-30T04:27:09;15.02;;;6.30;;
55065;SDS011;40964;42.114;24.220;2024-01-30T04:29:35;18.85;;;7.35;;
55065;SDS011;40964;42.114;24.220;2024-01-30T04:32:00;17.95;;;7.40;;
55065;SDS011;40964;42.114;24.220;2024-01-30T04:34:25;12.55;;;6.55;;
55065;SDS011;40964;42.114;24.220;2024-01-30T04:36:51;19.67;;;8.48;;
55065;SDS011;40964;42.114;24.220;2024-01-30T04:39:16;14.13;;;6.60;;
55065;SDS011;40964;42.114;24.220;2024-01-30T04:41:42;18.50;;;7.97;;
55065;SDS011;40964;42.114;24.220;2024-01-30T04:44:07;14.98;;;6.82;;
55065;SDS011;40964;42.114;24.220;2024-01-30T04:46:33;14.95;;;6.25;;
55065;SDS011;40964;42.114;24.220;2024-01-30T04:49:01;15.77;;;6.55;;
55065;SDS011;40964;42.114;24.220;2024-01-30T04:51:26;15.90;;;7.45;;
55065;SDS011;40964;42.114;24.220;2024-01-30T04:53:52;15.90;;;7.28;;
55065;SDS011;40964;42.114;24.220;2024-01-30T04:56:17;14.57;;;6.85;;
55065;SDS011;40964;42.114;24.220;2024-01-30T04:58:43;12.75;;;6.40;;
55065;SDS011;40964;42.114;24.220;2024-01-30T05:01:08;13.70;;;5.72;;
55065;SDS011;40964;42.114;24.220;2024-01-30T05:03:34;14.68;;;6.78;;
55065;SDS011;40964;42.114;24.220;2024-01-30T05:06:00;13.43;;;6.10;;
55065;SDS011;40964;42.114;24.220;2024-01-30T05:08:25;13.77;;;6.40;;
55065;SDS011;40964;42.114;24.220;2024-01-30T05:10:51;12.57;;;6.75;;
55065;SDS011;40964;42.114;24.220;2024-01-30T05:13:16;20.17;;;7.20;;
55065;SDS011;40964;42.114;24.220;2024-01-30T05:15:42;15.18;;;6.88;;
55065;SDS011;40964;42.114;24.220;2024-01-30T05:18:07;13.98;;;6.63;;
55065;SDS011;40964;42.114;24.220;2024-01-30T05:20:32;14.77;;;6.90;;
55065;SDS011;40964;42.114;24.220;2024-01-30T05:22:58;17.98;;;7.07;;
55065;SDS011;40964;42.114;24.220;2024-01-30T05:25:23;15.98;;;7.47;;
55065;SDS011;40964;42.114;24.220;2024-01-30T05:27:49;21.33;;;9.88;;
55065;SDS011;40964;42.114;24.220;2024-01-30T05:30:14;20.15;;;10.23;;
55065;SDS011;40964;42.114;24.220;2024-01-30T05:32:40;18.15;;;8.60;;
55065;SDS011;40964;42.114;24.220;2024-01-30T05:35:06;15.27;;;8.15;;
55065;SDS011;40964;42.114;24.220;2024-01-30T05:37:32;13.73;;;5.95;;
55065;SDS011;40964;42.114;24.220;2024-01-30T05:39:58;14.15;;;7.47;;
55065;SDS011;40964;42.114;24.220;2024-01-30T05:42:24;18.33;;;7.60;;
55065;SDS011;40964;42.114;24.220;2024-01-30T05:44:49;19.00;;;8.52;;
55065;SDS011;40964;42.114;24.220;2024-01-30T05:47:15;24.45;;;11.75;;
55065;SDS011;40964;42.114;24.220;2024-01-30T05:49:40;24.83;;;11.05;;
55065;SDS011;40964;42.114;24.220;2024-01-30T05:52:07;23.58;;;9.85;;
55065;SDS011;40964;42.114;24.220;2024-01-30T05:54:32;23.88;;;9.45;;
55065;SDS011;40964;42.114;24.220;2024-01-30T05:56:58;23.60;;;9.52;;
55065;SDS011;40964;42.114;24.220;2024-01-30T05:59:23;32.53;;;15.55;;
55065;SDS011;40964;42.114;24.220;2024-01-30T06:01:49;40.20;;;18.08;;
55065;SDS011;40964;42.114;24.220;2024-01-30T06:04:14;31.63;;;15.05;;
55065;SDS011;40964;42.114;24.220;2024-01-30T06:06:40;25.45;;;10.95;;
55065;SDS011;40964;42.114;24.220;2024-01-30T06:09:06;28.80;;;10.63;;
55065;SDS011;40964;42.114;24.220;2024-01-30T06:11:34;28.73;;;12.00;;
55065;SDS011;40964;42.114;24.220;2024-01-30T06:14:00;27.38;;;12.43;;
55065;SDS011;40964;42.114;24.220;2024-01-30T06:16:25;26.08;;;12.38;;
55065;SDS011;40964;42.114;24.220;2024-01-30T06:18:54;25.15;;;11.75;;
55065;SDS011;40964;42.114;24.220;2024-01-30T06:21:20;25.73;;;11.88;;
55065;SDS011;40964;42.114;24.220;2024-01-30T06:23:46;24.92;;;11.18;;
55065;SDS011;40964;42.114;24.220;2024-01-30T06:26:11;26.52;;;10.50;;
55065;SDS011;40964;42.114;24.220;2024-01-30T06:28:36;17.08;;;8.50;;
55065;SDS011;40964;42.114;24.220;2024-01-30T06:31:02;14.43;;;5.95;;
55065;SDS011;40964;42.114;24.220;2024-01-30T06:33:28;14.93;;;6.28;;
55065;SDS011;40964;42.114;24.220;2024-01-30T06:35:53;10.75;;;4.75;;
55065;SDS011;40964;42.114;24.220;2024-01-30T06:38:18;12.43;;;4.78;;
55065;SDS011;40964;42.114;24.220;2024-01-30T06:40:44;11.52;;;5.50;;
55065;SDS011;40964;42.114;24.220;2024-01-30T06:43:09;10.57;;;4.78;;
55065;SDS011;40964;42.114;24.220;2024-01-30T06:45:36;15.73;;;6.60;;
55065;SDS011;40964;42.114;24.220;2024-01-30T06:48:02;24.50;;;11.10;;
55065;SDS011;40964;42.114;24.220;2024-01-30T06:50:28;20.80;;;9.00;;
55065;SDS011;40964;42.114;24.220;2024-01-30T06:52:53;16.75;;;7.82;;
55065;SDS011;40964;42.114;24.220;2024-01-30T06:55:19;12.82;;;6.25;;
55065;SDS011;40964;42.114;24.220;2024-01-30T06:57:44;15.00;;;6.50;;
55065;SDS011;40964;42.114;24.220;2024-01-30T07:00:10;9.27;;;5.07;;
55065;SDS011;40964;42.114;24.220;2024-01-30T07:02:35;12.73;;;6.20;;
55065;SDS011;40964;42.114;24.220;2024-01-30T07:05:01;11.98;;;4.78;;
55065;SDS011;40964;42.114;24.220;2024-01-30T07:07:28;10.48;;;5.53;;
55065;SDS011;40964;42.114;24.220;2024-01-30T07:09:54;11.55;;;5.38;;
55065;SDS011;40964;42.114;24.220;2024-01-30T07:12:23;11.20;;;5.53;;
55065;SDS011;40964;42.114;24.220;2024-01-30T07:14:50;11.32;;;6.65;;
55065;SDS011;40964;42.114;24.220;2024-01-30T07:17:16;13.60;;;7.30;;
55065;SDS011;40964;42.114;24.220;2024-01-30T07:19:41;18.02;;;10.07;;
55065;SDS011;40964;42.114;24.220;2024-01-30T07:22:07;18.70;;;7.70;;
55065;SDS011;40964;42.114;24.220;2024-01-30T07:24:33;17.00;;;6.93;;
55065;SDS011;40964;42.114;24.220;2024-01-30T07:26:58;13.35;;;5.47;;
55065;SDS011;40964;42.114;24.220;2024-01-30T07:29:24;14.10;;;6.10;;
55065;SDS011;40964;42.114;24.220;2024-01-30T07:31:49;7.25;;;3.97;;
55065;SDS011;40964;42.114;24.220;2024-01-30T07:34:15;18.48;;;7.93;;
55065;SDS011;40964;42.114;24.220;2024-01-30T07:36:40;16.25;;;9.00;;
55065;SDS011;40964;42.114;24.220;2024-01-30T07:39:06;18.40;;;8.48;;
55065;SDS011;40964;42.114;24.220;2024-01-30T07:41:31;11.85;;;6.53;;
55065;SDS011;40964;42.114;24.220;2024-01-30T07:43:57;17.88;;;6.00;;
55065;SDS011;40964;42.114;24.220;2024-01-30T07:46:23;17.10;;;7.40;;
55065;SDS011;40964;42.114;24.220;2024-01-30T07:48:48;14.73;;;7.28;;
55065;SDS011;40964;42.114;24.220;2024-01-30T07:51:13;11.20;;;5.10;;
55065;SDS011;40964;42.114;24.220;2024-01-30T07:53:39;9.60;;;4.70;;
55065;SDS011;40964;42.114;24.220;2024-01-30T07:56:07;9.23;;;4.80;;
55065;SDS011;40964;42.114;24.220;2024-01-30T07:58:32;10.32;;;4.82;;
55065;SDS011;40964;42.114;24.220;2024-01-30T08:00:58;18.75;;;8.23;;
55065;SDS011;40964;42.114;24.220;2024-01-30T08:03:25;20.25;;;9.48;;
55065;SDS011;40964;42.114;24.220;2024-01-30T08:05:50;17.30;;;8.75;;
55065;SDS011;40964;42.114;24.220;2024-01-30T08:08:16;27.23;;;9.77;;
55065;SDS011;40964;42.114;24.220;2024-01-30T08:10:42;20.70;;;9.90;;
55065;SDS011;40964;42.114;24.220;2024-01-30T08:13:07;18.95;;;8.82;;
55065;SDS011;40964;42.114;24.220;2024-01-30T08:15:34;15.48;;;7.05;;
55065;SDS011;40964;42.114;24.220;2024-01-30T08:17:59;9.95;;;5.50;;
55065;SDS011;40964;42.114;24.220;2024-01-30T08:20:25;18.40;;;7.28;;
55065;SDS011;40964;42.114;24.220;2024-01-30T08:22:51;15.27;;;7.20;;
55065;SDS011;40964;42.114;24.220;2024-01-30T08:25:16;11.43;;;4.80;;
55065;SDS011;40964;42.114;24.220;2024-01-30T08:27:42;7.22;;;4.18;;
55065;SDS011;40964;42.114;24.220;2024-01-30T08:30:08;9.95;;;4.80;;
55065;SDS011;40964;42.114;24.220;2024-01-30T08:32:33;8.45;;;4.57;;
55065;SDS011;40964;42.114;24.220;2024-01-30T08:34:59;11.30;;;4.78;;
55065;SDS011;40964;42.114;24.220;2024-01-30T08:37:28;12.05;;;4.68;;
55065;SDS011;40964;42.114;24.220;2024-01-30T08:39:54;9.20;;;4.75;;
55065;SDS011;40964;42.114;24.220;2024-01-30T08:42:20;2.45;;;1.60;;
55065;SDS011;40964;42.114;24.220;2024-01-30T08:44:47;4.13;;;1.70;;
55065;SDS011;40964;42.114;24.220;2024-01-30T08:47:17;5.90;;;3.00;;
55065;SDS011;40964;42.114;24.220;2024-01-30T08:49:43;4.38;;;2.47;;
55065;SDS011;40964;42.114;24.220;2024-01-30T08:52:10;5.32;;;2.75;;
55065;SDS011;40964;42.114;24.220;2024-01-30T08:54:36;6.05;;;2.60;;
55065;SDS011;40964;42.114;24.220;2024-01-30T08:57:01;5.97;;;3.08;;
55065;SDS011;40964;42.114;24.220;2024-01-30T08:59:27;6.85;;;2.80;;
55065;SDS011;40964;42.114;24.220;2024-01-30T09:01:52;3.45;;;2.03;;
55065;SDS011;40964;42.114;24.220;2024-01-30T09:04:20;4.00;;;2.15;;
55065;SDS011;40964;42.114;24.220;2024-01-30T09:06:47;5.18;;;2.38;;
55065;SDS011;40964;42.114;24.220;2024-01-30T09:09:13;6.10;;;3.45;;
55065;SDS011;40964;42.114;24.220;2024-01-30T09:11:39;4.68;;;2.30;;
55065;SDS011;40964;42.114;24.220;2024-01-30T09:14:05;6.70;;;3.13;;
55065;SDS011;40964;42.114;24.220;2024-01-30T09:16:30;5.30;;;2.65;;
55065;SDS011;40964;42.114;24.220;2024-01-30T09:18:56;5.75;;;2.72;;
55065;SDS011;40964;42.114;24.220;2024-01-30T09:21:21;6.88;;;2.83;;
55065;SDS011;40964;42.114;24.220;2024-01-30T09:23:46;5.60;;;2.88;;
55065;SDS011;40964;42.114;24.220;2024-01-30T09:26:12;5.43;;;3.42;;
55065;SDS011;40964;42.114;24.220;2024-01-30T09:28:38;5.63;;;2.92;;
55065;SDS011;40964;42.114;24.220;2024-01-30T09:31:03;7.03;;;3.45;;
55065;SDS011;40964;42.114;24.220;2024-01-30T09:33:29;8.10;;;3.42;;
55065;SDS011;40964;42.114;24.220;2024-01-30T09:35:54;6.93;;;4.72;;
55065;SDS011;40964;42.114;24.220;2024-01-30T09:38:20;5.35;;;3.00;;
55065;SDS011;40964;42.114;24.220;2024-01-30T09:40:47;4.82;;;2.75;;
55065;SDS011;40964;42.114;24.220;2024-01-30T09:43:19;6.50;;;2.85;;
55065;SDS011;40964;42.114;24.220;2024-01-30T09:45:48;5.72;;;3.17;;
55065;SDS011;40964;42.114;24.220;2024-01-30T09:48:15;7.05;;;2.92;;
55065;SDS011;40964;42.114;24.220;2024-01-30T09:50:41;5.55;;;3.03;;
55065;SDS011;40964;42.114;24.220;2024-01-30T09:53:07;4.80;;;2.85;;
55065;SDS011;40964;42.114;24.220;2024-01-30T09:55:34;7.43;;;4.20;;
55065;SDS011;40964;42.114;24.220;2024-01-30T09:58:01;7.50;;;3.88;;
55065;SDS011;40964;42.114;24.220;2024-01-30T10:00:26;5.03;;;2.70;;
55065;SDS011;40964;42.114;24.220;2024-01-30T10:02:52;4.53;;;1.80;;
55065;SDS011;40964;42.114;24.220;2024-01-30T10:05:19;3.60;;;1.80;;
55065;SDS011;40964;42.114;24.220;2024-01-30T10:08:05;2.97;;;1.70;;
55065;SDS011;40964;42.114;24.220;2024-01-30T10:10:33;2.80;;;1.45;;
55065;SDS011;40964;42.114;24.220;2024-01-30T10:12:59;8.25;;;2.92;;
55065;SDS011;40964;42.114;24.220;2024-01-30T10:15:25;5.00;;;2.15;;
55065;SDS011;40964;42.114;24.220;2024-01-30T10:17:51;6.97;;;2.30;;
55065;SDS011;40964;42.114;24.220;2024-01-30T10:20:16;5.32;;;2.42;;
55065;SDS011;40964;42.114;24.220;2024-01-30T10:22:43;3.40;;;2.13;;
55065;SDS011;40964;42.114;24.220;2024-01-30T10:25:10;2.10;;;1.60;;
55065;SDS011;40964;42.114;24.220;2024-01-30T10:27:36;4.05;;;1.70;;
55065;SDS011;40964;42.114;24.220;2024-01-30T10:30:01;3.00;;;1.67;;
55065;SDS011;40964;42.114;24.220;2024-01-30T10:32:29;3.10;;;1.65;;
55065;SDS011;40964;42.114;24.220;2024-01-30T10:34:54;13.32;;;6.45;;
55065;SDS011;40964;42.114;24.220;2024-01-30T10:37:20;15.63;;;7.07;;
55065;SDS011;40964;42.114;24.220;2024-01-30T10:39:50;8.27;;;4.35;;
55065;SDS011;40964;42.114;24.220;2024-01-30T10:42:20;3.55;;;1.88;;
55065;SDS011;40964;42.114;24.220;2024-01-30T10:45:00;4.25;;;1.85;;
55065;SDS011;40964;42.114;24.220;2024-01-30T10:47:33;3.28;;;1.77;;
55065;SDS011;40964;42.114;24.220;2024-01-30T10:50:03;4.82;;;1.52;;
55065;SDS011;40964;42.114;24.220;2024-01-30T10:52:29;4.05;;;2.50;;
55065;SDS011;40964;42.114;24.220;2024-01-30T10:54:55;2.80;;;1.50;;
55065;SDS011;40964;42.114;24.220;2024-01-30T10:57:24;3.40;;;1.60;;
55065;SDS011;40964;42.114;24.220;2024-01-30T10:59:58;3.45;;;1.60;;
55065;SDS011;40964;42.114;24.220;2024-01-30T11:05:00;3.33;;;1.88;;
55065;SDS011;40964;42.114;24.220;2024-01-30T11:07:27;3.35;;;1.80;;
55065;SDS011;40964;42.114;24.220;2024-01-30T11:10:00;4.93;;;2.20;;
55065;SDS011;40964;42.114;24.220;2024-01-30T11:12:28;4.80;;;3.20;;
55065;SDS011;40964;42.114;24.220;2024-01-30T11:15:05;4.38;;;2.95;;
55065;SDS011;40964;42.114;24.220;2024-01-30T11:17:51;7.47;;;2.88;;
55065;SDS011;40964;42.114;24.220;2024-01-30T11:20:29;5.32;;;2.38;;
55065;SDS011;40964;42.114;24.220;2024-01-30T11:23:00;5.18;;;2.80;;
55065;SDS011;40964;42.114;24.220;2024-01-30T11:25:33;8.15;;;3.20;;
55065;SDS011;40964;42.114;24.220;2024-01-30T11:27:58;4.15;;;3.08;;
55065;SDS011;40964;42.114;24.220;2024-01-30T11:30:27;10.10;;;4.30;;
55065;SDS011;40964;42.114;24.220;2024-01-30T11:33:01;7.70;;;4.30;;
55065;SDS011;40964;42.114;24.220;2024-01-30T11:35:30;6.90;;;3.70;;
55065;SDS011;40964;42.114;24.220;2024-01-30T11:37:57;10.35;;;4.53;;
55065;SDS011;40964;42.114;24.220;2024-01-30T11:40:25;9.30;;;4.55;;
55065;SDS011;40964;42.114;24.220;2024-01-30T11:42:52;10.10;;;4.43;;
55065;SDS011;40964;42.114;24.220;2024-01-30T11:45:19;9.13;;;5.05;;
55065;SDS011;40964;42.114;24.220;2024-01-30T11:47:45;9.98;;;5.07;;
55065;SDS011;40964;42.114;24.220;2024-01-30T11:50:10;8.15;;;3.47;;
55065;SDS011;40964;42.114;24.220;2024-01-30T11:52:36;7.22;;;3.55;;
55065;SDS011;40964;42.114;24.220;2024-01-30T11:55:02;8.63;;;3.58;;
55065;SDS011;40964;42.114;24.220;2024-01-30T11:57:28;6.03;;;2.60;;
55065;SDS011;40964;42.114;24.220;2024-01-30T11:59:54;8.32;;;3.47;;
55065;SDS011;40964;42.114;24.220;2024-01-30T12:02:19;7.10;;;3.22;;
55065;SDS011;40964;42.114;24.220;2024-01-30T12:04:45;5.85;;;3.00;;
55065;SDS011;40964;42.114;24.220;2024-01-30T12:07:11;4.95;;;2.72;;
55065;SDS011;40964;42.114;24.220;2024-01-30T12:09:38;8.75;;;3.03;;
55065;SDS011;40964;42.114;24.220;2024-01-30T12:12:03;3.95;;;2.50;;
55065;SDS011;40964;42.114;24.220;2024-01-30T12:14:30;7.22;;;2.75;;
55065;SDS011;40964;42.114;24.220;2024-01-30T12:16:56;6.28;;;3.17;;
55065;SDS011;40964;42.114;24.220;2024-01-30T12:19:25;8.02;;;4.18;;
55065;SDS011;40964;42.114;24.220;2024-01-30T12:21:54;11.73;;;5.38;;
55065;SDS011;40964;42.114;24.220;2024-01-30T12:24:21;9.77;;;4.47;;
55065;SDS011;40964;42.114;24.220;2024-01-30T12:26:47;5.38;;;2.55;;
55065;SDS011;40964;42.114;24.220;2024-01-30T12:29:14;3.45;;;2.08;;
55065;SDS011;40964;42.114;24.220;2024-01-30T12:31:41;4.78;;;2.70;;
55065;SDS011;40964;42.114;24.220;2024-01-30T12:34:07;4.03;;;2.33;;
55065;SDS011;40964;42.114;24.220;2024-01-30T12:36:33;5.28;;;2.30;;
55065;SDS011;40964;42.114;24.220;2024-01-30T12:38:59;6.28;;;2.45;;
55065;SDS011;40964;42.114;24.220;2024-01-30T12:41:25;3.17;;;2.20;;
55065;SDS011;40964;42.114;24.220;2024-01-30T12:43:54;4.70;;;2.10;;
55065;SDS011;40964;42.114;24.220;2024-01-30T12:46:19;6.95;;;2.80;;
55065;SDS011;40964;42.114;24.220;2024-01-30T12:48:45;5.22;;;2.42;;
55065;SDS011;40964;42.114;24.220;2024-01-30T12:51:10;4.43;;;2.50;;
55065;SDS011;40964;42.114;24.220;2024-01-30T12:53:36;5.35;;;2.42;;
55065;SDS011;40964;42.114;24.220;2024-01-30T12:56:01;4.00;;;2.13;;
55065;SDS011;40964;42.114;24.220;2024-01-30T12:58:27;2.88;;;1.90;;
55065;SDS011;40964;42.114;24.220;2024-01-30T13:00:52;4.22;;;2.38;;
55065;SDS011;40964;42.114;24.220;2024-01-30T13:03:19;6.47;;;2.33;;
55065;SDS011;40964;42.114;24.220;2024-01-30T13:05:44;6.03;;;3.45;;
55065;SDS011;40964;42.114;24.220;2024-01-30T13:08:10;2.90;;;1.95;;
55065;SDS011;40964;42.114;24.220;2024-01-30T13:10:35;1.92;;;1.35;;
55065;SDS011;40964;42.114;24.220;2024-01-30T13:13:01;2.97;;;1.90;;
55065;SDS011;40964;42.114;24.220;2024-01-30T13:15:26;3.45;;;1.83;;
55065;SDS011;40964;42.114;24.220;2024-01-30T13:17:52;3.47;;;2.45;;
55065;SDS011;40964;42.114;24.220;2024-01-30T13:20:19;5.35;;;2.50;;
55065;SDS011;40964;42.114;24.220;2024-01-30T13:22:47;5.18;;;1.55;;
55065;SDS011;40964;42.114;24.220;2024-01-30T13:25:14;4.47;;;2.35;;
55065;SDS011;40964;42.114;24.220;2024-01-30T13:27:39;5.40;;;2.55;;
55065;SDS011;40964;42.114;24.220;2024-01-30T13:30:06;7.07;;;2.78;;
55065;SDS011;40964;42.114;24.220;2024-01-30T13:32:32;4.95;;;2.80;;
55065;SDS011;40964;42.114;24.220;2024-01-30T13:34:57;2.90;;;2.00;;
55065;SDS011;40964;42.114;24.220;2024-01-30T13:37:23;4.38;;;1.98;;
55065;SDS011;40964;42.114;24.220;2024-01-30T13:39:48;3.45;;;2.25;;
55065;SDS011;40964;42.114;24.220;2024-01-30T13:42:14;4.93;;;3.25;;
55065;SDS011;40964;42.114;24.220;2024-01-30T13:44:39;3.40;;;2.17;;
55065;SDS011;40964;42.114;24.220;2024-01-30T13:47:05;7.15;;;3.63;;
55065;SDS011;40964;42.114;24.220;2024-01-30T13:49:30;7.10;;;4.00;;
55065;SDS011;40964;42.114;24.220;2024-01-30T13:51:56;25.48;;;9.93;;
55065;SDS011;40964;42.114;24.220;2024-01-30T13:54:21;16.58;;;5.20;;
55065;SDS011;40964;42.114;24.220;2024-01-30T13:56:47;16.92;;;5.82;;
55065;SDS011;40964;42.114;24.220;2024-01-30T13:59:13;12.98;;;6.03;;
55065;SDS011;40964;42.114;24.220;2024-01-30T14:01:38;36.45;;;12.63;;
55065;SDS011;40964;42.114;24.220;2024-01-30T14:04:04;19.70;;;7.45;;
55065;SDS011;40964;42.114;24.220;2024-01-30T14:06:29;37.53;;;14.25;;
55065;SDS011;40964;42.114;24.220;2024-01-30T14:08:54;6.97;;;3.65;;
55065;SDS011;40964;42.114;24.220;2024-01-30T14:11:20;14.77;;;5.22;;
55065;SDS011;40964;42.114;24.220;2024-01-30T14:13:46;6.85;;;3.45;;
55065;SDS011;40964;42.114;24.220;2024-01-30T14:16:11;15.88;;;7.38;;
55065;SDS011;40964;42.114;24.220;2024-01-30T14:18:37;12.13;;;5.28;;
55065;SDS011;40964;42.114;24.220;2024-01-30T14:21:02;16.95;;;8.48;;
55065;SDS011;40964;42.114;24.220;2024-01-30T14:23:28;12.55;;;5.60;;